createdAt,value
2022-11-29T00:01:18.556Z,21.60
2022-11-29T00:03:45.773Z,20.90
2022-11-29T00:06:27.493Z,22.27
2022-11-29T00:08:56.271Z,21.17
2022-11-29T00:11:47.611Z,22.33
2022-11-29T00:14:17.339Z,21.38
2022-11-29T00:16:44.748Z,22.15
2022-11-29T00:19:13.107Z,19.17
2022-11-29T00:21:40.053Z,21.98
2022-11-29T00:24:07.387Z,22.27
2022-11-29T00:26:34.789Z,21.15
2022-11-29T00:29:01.655Z,19.23
2022-11-29T00:31:31.611Z,22.73
2022-11-29T00:34:00.128Z,21.27
2022-11-29T00:36:28.045Z,19.05
2022-11-29T00:38:55.163Z,19.58
2022-11-29T00:41:22.108Z,20.00
2022-11-29T00:43:49.015Z,19.88
2022-11-29T00:46:16.039Z,19.45
2022-11-29T00:48:42.897Z,19.33
2022-11-29T00:51:10.306Z,21.80
2022-11-29T00:53:38.053Z,20.23
2022-11-29T00:56:06.184Z,19.85
2022-11-29T00:58:33.391Z,20.67
2022-11-29T01:01:00.409Z,18.92
2022-11-29T01:03:27.571Z,19.30
2022-11-29T01:06:05.635Z,17.00
2022-11-29T01:08:32.875Z,18.73
2022-11-29T01:11:17.008Z,19.90
2022-11-29T01:13:44.534Z,18.08
2022-11-29T01:16:13.016Z,17.88
2022-11-29T01:18:40.270Z,18.27
2022-11-29T01:21:10.595Z,18.73
2022-11-29T01:23:38.277Z,18.00
2022-11-29T01:26:29.041Z,18.75
2022-11-29T01:28:57.646Z,16.77
2022-11-29T01:31:30.581Z,18.45
2022-11-29T01:34:00.315Z,18.58
2022-11-29T01:36:27.647Z,18.15
2022-11-29T01:38:54.600Z,17.88
2022-11-29T01:41:24.593Z,17.70
2022-11-29T01:44:03.823Z,17.80
2022-11-29T01:46:45.180Z,17.88
2022-11-29T01:49:20.756Z,18.10
2022-11-29T01:52:02.809Z,17.70
2022-11-29T01:54:31.849Z,18.92
2022-11-29T01:56:59.532Z,19.55
2022-11-29T01:59:29.480Z,19.50
2022-11-29T02:02:18.452Z,18.63
2022-11-29T02:04:47.663Z,19.67
2022-11-29T02:07:14.897Z,18.45
2022-11-29T02:09:42.113Z,19.20
2022-11-29T02:12:29.922Z,20.17
2022-11-29T02:15:18.381Z,19.60
2022-11-29T02:18:15.572Z,18.92
2022-11-29T02:21:12.263Z,20.80
2022-11-29T02:24:02.132Z,19.35
2022-11-29T02:26:34.978Z,20.40
2022-11-29T02:29:39.271Z,20.58
2022-11-29T02:32:56.773Z,19.15
2022-11-29T02:35:58.000Z,18.73
2022-11-29T02:38:25.213Z,18.95
2022-11-29T02:41:05.311Z,18.58
2022-11-29T02:43:46.576Z,19.52
2022-11-29T02:46:16.472Z,19.60
2022-11-29T02:48:55.950Z,19.23
2022-11-29T02:51:27.950Z,17.75
2022-11-29T02:54:23.998Z,19.13
2022-11-29T02:57:05.141Z,19.70
2022-11-29T02:59:37.714Z,18.65
2022-11-29T03:02:28.731Z,17.85
2022-11-29T03:05:17.491Z,17.90
2022-11-29T03:08:05.579Z,17.88
2022-11-29T03:11:06.705Z,17.85
2022-11-29T03:14:08.162Z,16.08
2022-11-29T03:17:05.311Z,18.35
2022-11-29T03:20:03.867Z,17.45
2022-11-29T03:22:39.622Z,14.85
2022-11-29T03:25:08.944Z,14.27
2022-11-29T03:27:39.060Z,13.52
2022-11-29T03:30:09.167Z,13.63
2022-11-29T03:32:49.335Z,12.00
2022-11-29T03:35:30.131Z,14.35
2022-11-29T03:38:12.067Z,12.90
2022-11-29T03:40:42.435Z,11.55
2022-11-29T03:43:22.398Z,13.25
2022-11-29T03:45:55.988Z,12.82
2022-11-29T03:48:31.464Z,12.47
2022-11-29T03:51:13.313Z,12.35
2022-11-29T03:54:01.928Z,13.02
2022-11-29T03:56:38.081Z,13.38
2022-11-29T03:59:42.607Z,13.02
2022-11-29T04:02:48.710Z,15.02
2022-11-29T04:05:16.026Z,12.27
2022-11-29T04:07:54.954Z,12.13
2022-11-29T04:10:51.188Z,12.35
2022-11-29T04:13:50.123Z,11.52
2022-11-29T04:16:48.057Z,10.90
2022-11-29T04:19:33.054Z,11.82
2022-11-29T04:22:30.151Z,11.43
2022-11-29T04:25:20.028Z,12.90
2022-11-29T04:28:05.487Z,10.73
2022-11-29T04:30:53.262Z,10.40
2022-11-29T04:33:45.020Z,11.77
2022-11-29T04:36:55.694Z,11.80
2022-11-29T04:39:37.108Z,11.98
2022-11-29T04:42:30.135Z,11.65
2022-11-29T04:45:21.749Z,13.45
2022-11-29T04:48:44.238Z,11.60
2022-11-29T04:51:45.222Z,10.85
2022-11-29T04:54:47.770Z,13.40
2022-11-29T04:57:30.865Z,11.55
2022-11-29T05:00:11.975Z,12.25
2022-11-29T05:02:54.205Z,12.38
2022-11-29T05:05:33.209Z,12.43
2022-11-29T05:08:35.088Z,12.40
2022-11-29T05:11:35.076Z,11.50
2022-11-29T05:14:24.719Z,12.07
2022-11-29T05:17:36.846Z,11.13
2022-11-29T05:20:21.784Z,12.32
2022-11-29T05:23:16.370Z,12.30
2022-11-29T05:26:12.561Z,10.48
2022-11-29T05:29:02.787Z,10.80
2022-11-29T05:31:30.717Z,12.25
2022-11-29T05:34:38.104Z,10.90
2022-11-29T05:37:10.999Z,11.15
2022-11-29T05:39:53.465Z,11.80
2022-11-29T05:42:38.958Z,11.90
2022-11-29T05:45:28.591Z,13.10
2022-11-29T05:48:17.751Z,12.40
2022-11-29T05:51:22.213Z,14.48
2022-11-29T05:54:24.468Z,12.95
2022-11-29T05:57:06.283Z,12.82
2022-11-29T05:59:36.770Z,12.77
2022-11-29T06:02:15.366Z,12.60
2022-11-29T06:04:57.342Z,12.63
2022-11-29T06:07:45.052Z,12.10
2022-11-29T06:10:22.050Z,12.38
2022-11-29T06:13:11.885Z,14.02
2022-11-29T06:15:57.051Z,13.30
2022-11-29T06:18:48.603Z,14.98
2022-11-29T06:21:40.260Z,12.95
2022-11-29T06:24:28.103Z,15.27
2022-11-29T06:27:25.505Z,13.20
2022-11-29T06:30:04.795Z,13.02
2022-11-29T06:32:54.522Z,14.48
2022-11-29T06:35:45.897Z,12.55
2022-11-29T06:38:37.054Z,14.70
2022-11-29T06:41:04.451Z,13.32
2022-11-29T06:43:31.660Z,13.45
2022-11-29T06:46:10.083Z,14.90
2022-11-29T06:48:49.265Z,13.55
2022-11-29T06:51:44.340Z,13.75
2022-11-29T06:54:34.506Z,12.63
2022-11-29T06:57:22.905Z,13.60
2022-11-29T06:59:58.308Z,14.48
2022-11-29T07:02:44.190Z,14.48
2022-11-29T07:05:36.432Z,15.02
2022-11-29T07:11:51.370Z,15.10
2022-11-29T07:14:18.583Z,17.15
2022-11-29T07:20:48.217Z,13.73
2022-11-29T07:23:23.981Z,14.98
2022-11-29T07:26:09.746Z,14.50
2022-11-29T07:28:54.349Z,13.43
2022-11-29T07:31:26.960Z,15.20
2022-11-29T07:34:31.788Z,16.13
2022-11-29T07:37:07.480Z,14.50
2022-11-29T07:39:49.383Z,14.90
2022-11-29T07:42:21.239Z,14.73
2022-11-29T07:44:51.303Z,16.00
2022-11-29T07:47:18.262Z,13.85
2022-11-29T07:49:45.141Z,15.88
2022-11-29T07:52:14.356Z,15.95
2022-11-29T07:54:41.395Z,15.60
2022-11-29T07:57:08.594Z,14.35
2022-11-29T07:59:35.439Z,15.95
2022-11-29T08:02:04.692Z,16.35
2022-11-29T08:04:40.278Z,14.93
2022-11-29T08:07:07.171Z,14.43
2022-11-29T08:09:34.052Z,16.27
2022-11-29T08:12:00.946Z,14.40
2022-11-29T08:14:32.511Z,16.50
2022-11-29T08:16:59.421Z,15.30
2022-11-29T08:19:26.385Z,14.70
2022-11-29T08:21:53.961Z,15.25
2022-11-29T08:24:20.972Z,16.23
2022-11-29T08:26:48.158Z,15.00
2022-11-29T08:29:15.856Z,18.52
2022-11-29T08:31:42.822Z,15.32
2022-11-29T08:34:10.936Z,16.55
2022-11-29T08:36:37.843Z,14.70
2022-11-29T08:39:09.354Z,15.77
2022-11-29T08:41:36.715Z,15.48
2022-11-29T08:44:05.977Z,15.52
2022-11-29T08:46:58.994Z,17.15
2022-11-29T08:49:25.886Z,15.65
2022-11-29T08:52:13.043Z,16.00
2022-11-29T08:54:40.296Z,16.02
2022-11-29T08:59:54.386Z,16.08
2022-11-29T09:02:21.623Z,15.85
2022-11-29T09:04:48.904Z,15.23
2022-11-29T09:07:16.686Z,18.05
2022-11-29T09:09:43.546Z,17.38
2022-11-29T09:12:10.408Z,16.48
2022-11-29T09:14:37.700Z,18.08
2022-11-29T09:17:04.548Z,16.60
2022-11-29T09:19:31.453Z,16.60
2022-11-29T09:21:58.301Z,17.27
2022-11-29T09:24:25.116Z,19.10
2022-11-29T09:26:52.021Z,18.65
2022-11-29T09:29:19.316Z,18.45
2022-11-29T09:31:46.428Z,16.77
2022-11-29T09:34:14.884Z,17.42
2022-11-29T09:36:44.198Z,16.80
2022-11-29T09:39:12.555Z,16.83
2022-11-29T09:42:07.772Z,18.13
2022-11-29T09:47:28.382Z,15.48
2022-11-29T09:50:10.082Z,16.67
2022-11-29T09:52:48.491Z,17.80
2022-11-29T09:55:28.945Z,17.80
2022-11-29T09:57:58.618Z,18.23
2022-11-29T10:00:26.227Z,18.15
2022-11-29T10:02:59.552Z,19.75
2022-11-29T10:05:26.869Z,18.33
2022-11-29T10:08:09.892Z,19.02
2022-11-29T10:10:43.325Z,19.85
2022-11-29T10:13:25.252Z,18.23
2022-11-29T10:15:55.471Z,19.73
2022-11-29T10:18:48.008Z,18.40
2022-11-29T10:21:19.924Z,19.60
2022-11-29T10:23:57.218Z,18.50
2022-11-29T10:26:27.344Z,18.17
2022-11-29T10:28:58.121Z,18.23
2022-11-29T10:31:29.308Z,19.08
2022-11-29T10:33:58.413Z,20.23
2022-11-29T10:36:33.454Z,19.75
2022-11-29T10:39:10.067Z,18.60
2022-11-29T10:41:41.202Z,19.33
2022-11-29T10:44:13.899Z,19.35
2022-11-29T10:46:41.347Z,18.67
2022-11-29T10:49:17.706Z,20.77
2022-11-29T10:51:46.563Z,18.65
2022-11-29T10:54:28.151Z,18.85
2022-11-29T11:00:50.798Z,19.88
2022-11-29T11:11:30.764Z,18.63
2022-11-29T11:14:06.639Z,19.23
2022-11-29T11:20:23.932Z,19.48
2022-11-29T11:23:02.191Z,20.05
2022-11-29T11:25:34.689Z,19.55
2022-11-29T11:28:21.026Z,17.08
2022-11-29T11:30:54.797Z,19.60
2022-11-29T11:33:29.175Z,19.70
2022-11-29T11:36:17.208Z,18.90
2022-11-29T11:39:11.690Z,17.73
2022-11-29T11:42:01.604Z,19.70
2022-11-29T11:44:48.442Z,19.55
2022-11-29T11:47:24.404Z,19.10
2022-11-29T11:50:04.171Z,19.90
2022-11-29T11:52:41.283Z,20.45
2022-11-29T11:55:33.517Z,18.70
2022-11-29T12:01:48.212Z,18.92
2022-11-29T12:04:33.928Z,18.98
2022-11-29T12:07:33.943Z,18.73
2022-11-29T12:10:22.525Z,18.38
2022-11-29T12:12:50.726Z,20.38
2022-11-29T12:15:19.753Z,19.65
2022-11-29T12:17:46.614Z,19.50
2022-11-29T12:20:13.448Z,19.40
2022-11-29T12:26:49.057Z,16.98
2022-11-29T12:29:15.417Z,22.60
2022-11-29T12:31:55.383Z,22.02
2022-11-29T12:34:43.207Z,18.60
2022-11-29T12:37:27.142Z,17.23
2022-11-29T12:40:13.628Z,21.65
2022-11-29T12:43:11.043Z,20.80
2022-11-29T12:45:52.915Z,17.55
2022-11-29T12:48:37.533Z,19.02
2022-11-29T12:51:04.767Z,17.42
2022-11-29T12:54:07.214Z,18.05
2022-11-29T12:56:58.636Z,18.17
2022-11-29T12:59:45.120Z,17.63
2022-11-29T13:02:34.760Z,16.85
2022-11-29T13:05:14.705Z,18.90
2022-11-29T13:07:57.354Z,16.98
2022-11-29T13:10:27.258Z,19.10
2022-11-29T13:13:19.226Z,17.60
2022-11-29T13:19:39.124Z,19.70
2022-11-29T13:22:18.739Z,17.08
2022-11-29T13:24:52.392Z,18.48
2022-11-29T13:27:27.328Z,18.77
2022-11-29T13:29:54.585Z,18.02
2022-11-29T13:32:53.773Z,18.23
2022-11-29T13:35:24.690Z,19.02
2022-11-29T13:37:55.134Z,19.45
2022-11-29T13:40:32.085Z,18.23
2022-11-29T13:43:33.272Z,18.27
2022-11-29T13:46:04.206Z,20.13
2022-11-29T13:48:51.932Z,19.98
2022-11-29T13:51:24.832Z,18.92
2022-11-29T13:53:52.965Z,19.55
2022-11-29T13:56:48.029Z,19.02
2022-11-29T13:59:48.642Z,20.38
2022-11-29T14:02:29.804Z,20.17
2022-11-29T14:04:56.962Z,19.05
2022-11-29T14:07:24.327Z,17.70
2022-11-29T14:10:07.088Z,18.77
2022-11-29T14:12:54.681Z,17.50
2022-11-29T14:15:28.411Z,19.17
2022-11-29T14:17:55.743Z,20.63
2022-11-29T14:20:25.932Z,17.20
2022-11-29T14:23:05.182Z,17.77
2022-11-29T14:25:51.567Z,17.85
2022-11-29T14:28:21.486Z,17.50
2022-11-29T14:30:53.121Z,18.92
2022-11-29T14:33:47.135Z,19.77
2022-11-29T14:36:23.068Z,19.55
2022-11-29T14:39:03.292Z,20.05
2022-11-29T14:42:10.664Z,19.15
2022-11-29T14:44:45.562Z,19.77
2022-11-29T14:47:24.905Z,19.95
2022-11-29T14:49:55.565Z,18.30
2022-11-29T14:52:22.412Z,19.23
2022-11-29T14:54:58.705Z,18.95
2022-11-29T14:57:47.521Z,19.27
2022-11-29T15:00:21.259Z,19.45
2022-11-29T15:02:59.206Z,19.67
2022-11-29T15:05:38.204Z,17.40
2022-11-29T15:08:29.434Z,20.52
2022-11-29T15:11:01.819Z,24.02
2022-11-29T15:13:34.582Z,21.73
2022-11-29T15:16:13.361Z,17.90
2022-11-29T15:18:51.669Z,19.13
2022-11-29T15:21:39.524Z,19.10
2022-11-29T15:24:13.084Z,19.27
2022-11-29T15:26:55.591Z,21.87
2022-11-29T15:29:23.180Z,19.50
2022-11-29T15:31:56.893Z,19.13
2022-11-29T15:34:39.804Z,18.58
2022-11-29T15:37:06.941Z,21.67
2022-11-29T15:39:36.657Z,19.70
2022-11-29T15:42:12.617Z,17.95
2022-11-29T15:44:48.930Z,17.90
2022-11-29T15:47:26.566Z,18.50
2022-11-29T15:49:54.391Z,19.98
2022-11-29T15:52:31.705Z,19.15
2022-11-29T15:58:40.329Z,18.60
2022-11-29T16:01:07.944Z,18.48
2022-11-29T16:07:24.233Z,17.20
2022-11-29T16:09:56.949Z,17.85
2022-11-29T16:12:24.311Z,20.13
2022-11-29T16:14:58.434Z,19.17
2022-11-29T16:21:06.756Z,19.00
2022-11-29T16:23:41.447Z,15.95
2022-11-29T16:26:27.036Z,17.38
2022-11-29T16:28:56.470Z,17.67
2022-11-29T16:31:30.718Z,18.00
2022-11-29T16:33:58.079Z,18.23
2022-11-29T16:36:28.058Z,18.25
2022-11-29T16:39:05.923Z,17.65
2022-11-29T16:41:38.446Z,19.88
2022-11-29T16:44:07.384Z,18.27
2022-11-29T16:46:37.277Z,17.88
2022-11-29T16:49:31.741Z,18.88
2022-11-29T16:51:59.234Z,19.95
2022-11-29T16:54:28.509Z,18.52
2022-11-29T16:56:57.292Z,19.33
2022-11-29T16:59:28.289Z,18.70
2022-11-29T17:01:56.779Z,18.95
2022-11-29T17:04:25.155Z,16.90
2022-11-29T17:06:56.465Z,17.65
2022-11-29T17:09:29.737Z,16.75
2022-11-29T17:11:59.868Z,16.75
2022-11-29T17:14:31.255Z,15.93
2022-11-29T17:17:00.938Z,16.60
2022-11-29T17:19:29.397Z,15.90
2022-11-29T17:21:56.386Z,17.08
2022-11-29T17:24:24.628Z,16.95
2022-11-29T17:26:51.613Z,17.10
2022-11-29T17:29:18.819Z,16.58
2022-11-29T17:31:47.133Z,19.25
2022-11-29T17:34:14.144Z,16.20
2022-11-29T17:36:41.284Z,18.83
2022-11-29T17:39:08.672Z,18.45
2022-11-29T17:41:35.970Z,18.67
2022-11-29T17:44:03.191Z,17.50
2022-11-29T17:46:32.584Z,17.02
2022-11-29T17:49:01.343Z,16.85
2022-11-29T17:51:51.068Z,17.05
2022-11-29T17:54:15.209Z,18.17
2022-11-29T17:56:42.121Z,17.80
2022-11-29T17:59:09.021Z,19.17
2022-11-29T18:01:36.942Z,19.23
2022-11-29T18:04:05.832Z,20.17
2022-11-29T18:06:40.533Z,20.00
2022-11-29T18:09:09.655Z,19.92
2022-11-29T18:11:47.022Z,19.60
2022-11-29T18:14:17.111Z,18.90
2022-11-29T18:16:45.663Z,19.85
2022-11-29T18:19:15.326Z,20.75
2022-11-29T18:21:42.768Z,18.83
2022-11-29T18:24:10.334Z,17.80
2022-11-29T18:26:38.339Z,17.95
2022-11-29T18:29:06.473Z,18.50
2022-11-29T18:31:35.978Z,19.88
2022-11-29T18:34:09.935Z,19.58
2022-11-29T18:36:45.783Z,20.45
2022-11-29T18:39:18.478Z,17.20
2022-11-29T18:41:47.883Z,19.17
2022-11-29T18:44:16.550Z,17.63
2022-11-29T18:46:44.986Z,19.83
2022-11-29T18:52:59.566Z,19.35
2022-11-29T18:55:26.878Z,19.27
2022-11-29T18:57:54.009Z,20.63
2022-11-29T19:00:21.351Z,19.33
2022-11-29T19:02:48.288Z,19.42
2022-11-29T19:05:15.765Z,19.08
2022-11-29T19:07:42.685Z,18.40
2022-11-29T19:10:09.926Z,18.75
2022-11-29T19:12:36.790Z,18.02
2022-11-29T19:15:03.936Z,21.20
2022-11-29T19:17:30.865Z,19.80
2022-11-29T19:19:58.419Z,20.35
2022-11-29T19:22:25.273Z,22.92
2022-11-29T19:24:52.166Z,20.77
2022-11-29T19:27:19.629Z,19.85
2022-11-29T19:29:46.609Z,17.90
2022-11-29T19:32:13.622Z,18.80
2022-11-29T19:34:40.730Z,20.25
2022-11-29T19:37:09.469Z,19.02
2022-11-29T19:39:36.276Z,19.85
2022-11-29T19:42:03.208Z,17.58
2022-11-29T19:44:31.430Z,18.30
2022-11-29T19:47:03.075Z,18.30
2022-11-29T19:49:30.196Z,18.60
2022-11-29T19:51:57.100Z,17.98
2022-11-29T19:54:24.111Z,18.80
2022-11-29T19:56:50.969Z,17.52
2022-11-29T19:59:18.686Z,18.58
2022-11-29T20:01:46.118Z,18.45
2022-11-29T20:04:14.211Z,18.67
2022-11-29T20:06:42.006Z,17.98
2022-11-29T20:09:09.781Z,19.08
2022-11-29T20:11:36.884Z,19.27
2022-11-29T20:14:05.793Z,19.80
2022-11-29T20:16:33.041Z,18.45
2022-11-29T20:18:59.976Z,18.58
2022-11-29T20:21:32.301Z,19.58
2022-11-29T20:24:04.941Z,18.63
2022-11-29T20:26:34.585Z,19.35
2022-11-29T20:29:02.337Z,18.38
2022-11-29T20:31:32.145Z,20.25
2022-11-29T20:33:59.296Z,21.13
2022-11-29T20:36:45.211Z,17.67
2022-11-29T20:39:35.148Z,18.65
2022-11-29T20:42:26.484Z,16.85
2022-11-29T20:45:01.621Z,18.98
2022-11-29T20:47:40.519Z,17.92
2022-11-29T20:50:08.224Z,16.02
2022-11-29T20:53:13.637Z,18.73
2022-11-29T20:55:47.514Z,17.20
2022-11-29T20:58:15.417Z,18.33
2022-11-29T21:00:42.313Z,18.73
2022-11-29T21:03:12.434Z,18.85
2022-11-29T21:05:39.424Z,19.05
2022-11-29T21:08:06.656Z,19.13
2022-11-29T21:10:34.457Z,17.80
2022-11-29T21:13:01.995Z,16.98
2022-11-29T21:15:29.309Z,17.25
2022-11-29T21:17:56.807Z,18.02
2022-11-29T21:20:26.223Z,16.30
2022-11-29T21:23:07.153Z,16.73
2022-11-29T21:25:42.967Z,16.40
2022-11-29T21:28:13.377Z,17.73
2022-11-29T21:30:41.015Z,20.48
2022-11-29T21:33:08.459Z,19.17
2022-11-29T21:35:39.719Z,18.05
2022-11-29T21:38:11.028Z,18.05
2022-11-29T21:40:37.890Z,17.35
2022-11-29T21:43:04.750Z,18.17
2022-11-29T21:45:31.667Z,17.15
2022-11-29T21:48:00.694Z,17.00
2022-11-29T21:50:27.708Z,18.17
2022-11-29T21:52:54.750Z,19.30
2022-11-29T21:55:21.666Z,16.70
2022-11-29T21:57:48.519Z,17.60
2022-11-29T22:00:15.800Z,16.70
2022-11-29T22:02:42.727Z,18.40
2022-11-29T22:05:09.879Z,17.25
2022-11-29T22:07:36.786Z,17.92
2022-11-29T22:10:11.623Z,17.33
2022-11-29T22:12:49.335Z,17.98
2022-11-29T22:15:24.140Z,18.05
2022-11-29T22:17:51.664Z,16.20
2022-11-29T22:20:18.485Z,18.85
2022-11-29T22:22:47.716Z,18.70
2022-11-29T22:25:15.544Z,16.90
2022-11-29T22:27:42.412Z,15.90
2022-11-29T22:30:09.656Z,16.52
2022-11-29T22:32:36.503Z,17.23
2022-11-29T22:35:03.740Z,16.30
2022-11-29T22:37:30.598Z,15.70
2022-11-29T22:39:57.819Z,15.18
2022-11-29T22:42:24.907Z,16.05
2022-11-29T22:44:52.291Z,15.70
2022-11-29T22:47:19.164Z,16.10
2022-11-29T22:49:45.960Z,16.63
2022-11-29T22:52:12.819Z,16.63
2022-11-29T22:54:39.705Z,15.95
2022-11-29T22:57:06.529Z,17.58
2022-11-29T22:59:33.412Z,17.42
2022-11-29T23:02:00.302Z,15.30
2022-11-29T23:04:27.182Z,15.88
2022-11-29T23:06:53.979Z,16.35
2022-11-29T23:09:22.528Z,17.10
2022-11-29T23:11:55.932Z,16.23
2022-11-29T23:14:24.264Z,15.40
2022-11-29T23:16:52.063Z,16.42
2022-11-29T23:19:19.120Z,16.25
2022-11-29T23:21:46.563Z,17.48
2022-11-29T23:24:15.005Z,15.23
2022-11-29T23:26:45.061Z,16.27
2022-11-29T23:29:19.520Z,16.13
2022-11-29T23:34:13.983Z,15.48
2022-11-29T23:36:40.890Z,16.10
2022-11-29T23:39:07.923Z,16.48
2022-11-29T23:41:36.424Z,15.90
2022-11-29T23:44:06.849Z,17.17
2022-11-29T23:46:35.518Z,16.50
2022-11-29T23:49:02.476Z,15.90
2022-11-29T23:51:29.391Z,15.48
2022-11-29T23:53:56.352Z,17.52
2022-11-29T23:56:23.552Z,17.45
2022-11-29T23:58:50.581Z,15.82
